createdAt,value
2017-09-28T00:01:20.281Z,17.50
2017-09-28T00:03:50.182Z,17.50
2017-09-28T00:06:20.077Z,17.60
2017-09-28T00:08:49.898Z,17.60
2017-09-28T00:11:20.666Z,17.50
2017-09-28T00:13:51.366Z,17.20
2017-09-28T00:16:21.183Z,17.40
2017-09-28T00:18:52.176Z,17.50
2017-09-28T00:21:23.630Z,17.40
2017-09-28T00:23:53.416Z,17.50
2017-09-28T00:26:30.708Z,17.50
2017-09-28T00:29:00.757Z,17.60
2017-09-28T00:31:32.456Z,17.50
2017-09-28T00:34:03.126Z,17.60
2017-09-28T00:36:32.905Z,17.70
2017-09-28T00:39:03.201Z,17.80
2017-09-28T00:41:34.698Z,17.60
2017-09-28T00:44:04.836Z,17.60
2017-09-28T00:46:35.761Z,17.10
2017-09-28T00:49:05.538Z,17.10
2017-09-28T00:51:35.521Z,17.20
2017-09-28T00:54:06.430Z,17.40
2017-09-28T00:56:37.365Z,17.50
2017-09-28T00:59:09.033Z,17.60
2017-09-28T01:01:39.878Z,17.50
2017-09-28T01:04:10.522Z,17.60
2017-09-28T01:06:40.361Z,17.40
2017-09-28T01:09:10.888Z,17.30
2017-09-28T01:11:42.558Z,17.30
2017-09-28T01:14:14.206Z,17.20
2017-09-28T01:16:44.693Z,17.30
2017-09-28T01:19:14.642Z,17.20
2017-09-28T01:21:45.934Z,17.10
2017-09-28T01:24:15.859Z,17.10
2017-09-28T01:26:45.875Z,17.20
2017-09-28T01:29:16.240Z,17.30
2017-09-28T01:31:46.993Z,17.30
2017-09-28T01:34:16.791Z,17.30
2017-09-28T01:36:47.413Z,17.30
2017-09-28T01:39:20.026Z,17.20
2017-09-28T01:41:52.011Z,17.00
2017-09-28T01:44:22.364Z,16.70
2017-09-28T01:47:02.834Z,16.80
2017-09-28T01:49:32.853Z,16.90
2017-09-28T01:52:02.890Z,16.80
2017-09-28T01:54:33.407Z,16.80
2017-09-28T01:57:03.041Z,16.80
2017-09-28T01:59:33.581Z,16.70
2017-09-28T02:02:04.263Z,16.70
2017-09-28T02:04:34.793Z,16.90
2017-09-28T02:07:04.259Z,17.00
2017-09-28T02:09:34.738Z,17.10
2017-09-28T02:12:12.129Z,16.90
2017-09-28T02:14:41.667Z,16.90
2017-09-28T02:17:13.972Z,16.70
2017-09-28T02:19:44.529Z,16.70
2017-09-28T02:22:14.340Z,16.90
2017-09-28T02:24:44.339Z,17.00
2017-09-28T02:27:16.209Z,16.80
2017-09-28T02:29:46.747Z,16.60
2017-09-28T02:32:17.219Z,16.70
2017-09-28T02:34:48.528Z,16.70
2017-09-28T02:37:18.452Z,16.60
2017-09-28T02:39:48.308Z,16.60
2017-09-28T02:42:18.192Z,16.70
2017-09-28T02:44:47.822Z,16.80
2017-09-28T02:47:18.613Z,17.00
2017-09-28T02:49:48.233Z,16.90
2017-09-28T02:52:20.167Z,16.90
2017-09-28T02:54:50.740Z,16.60
2017-09-28T02:57:21.869Z,16.10
2017-09-28T02:59:53.292Z,16.10
2017-09-28T03:02:24.140Z,16.10
2017-09-28T03:04:53.705Z,16.10
2017-09-28T03:07:23.277Z,16.30
2017-09-28T03:09:53.898Z,16.50
2017-09-28T03:12:24.832Z,16.30
2017-09-28T03:14:54.519Z,16.20
2017-09-28T03:17:24.322Z,16.40
2017-09-28T03:19:54.139Z,16.60
2017-09-28T03:22:24.073Z,16.60
2017-09-28T03:24:54.679Z,16.40
2017-09-28T03:27:24.442Z,16.50
2017-09-28T03:29:55.236Z,16.10
2017-09-28T03:32:26.059Z,15.70
2017-09-28T03:35:02.732Z,15.40
2017-09-28T03:37:32.240Z,15.30
2017-09-28T03:40:01.355Z,15.70
2017-09-28T03:42:30.452Z,16.00
2017-09-28T03:44:59.705Z,16.10
2017-09-28T03:47:30.357Z,16.50
2017-09-28T03:49:59.491Z,16.40
2017-09-28T03:52:29.199Z,16.10
2017-09-28T03:54:59.019Z,16.30
2017-09-28T03:57:29.376Z,16.30
2017-09-28T03:59:59.382Z,15.90
2017-09-28T04:02:36.867Z,15.80
2017-09-28T04:05:07.845Z,15.70
2017-09-28T04:07:39.217Z,15.80
2017-09-28T04:10:09.139Z,15.80
2017-09-28T04:12:39.830Z,15.90
2017-09-28T04:15:10.642Z,16.00
2017-09-28T04:17:40.105Z,16.00
2017-09-28T04:20:11.788Z,16.10
2017-09-28T04:22:41.562Z,15.90
2017-09-28T04:25:11.354Z,16.10
2017-09-28T04:27:43.759Z,16.10
2017-09-28T04:30:13.586Z,16.00
2017-09-28T04:32:44.471Z,16.00
2017-09-28T04:35:15.183Z,16.20
2017-09-28T04:37:44.838Z,16.30
2017-09-28T04:40:14.957Z,16.20
2017-09-28T04:42:47.329Z,15.90
2017-09-28T04:45:18.016Z,16.00
2017-09-28T04:47:47.924Z,15.90
2017-09-28T04:50:17.611Z,16.20
2017-09-28T04:52:47.385Z,16.10
2017-09-28T04:55:17.825Z,16.30
2017-09-28T04:57:48.370Z,16.30
2017-09-28T05:00:18.882Z,16.20
2017-09-28T05:03:01.226Z,16.20
2017-09-28T05:05:31.102Z,16.20
2017-09-28T05:08:01.392Z,16.20
2017-09-28T05:10:32.057Z,16.20
2017-09-28T05:13:03.589Z,16.10
2017-09-28T05:15:33.447Z,16.00
2017-09-28T05:18:02.882Z,16.10
2017-09-28T05:20:32.251Z,16.00
2017-09-28T05:23:01.919Z,15.90
2017-09-28T05:25:31.535Z,15.80
2017-09-28T05:28:01.211Z,15.80
2017-09-28T05:30:31.146Z,15.60
2017-09-28T05:33:00.802Z,15.80
2017-09-28T05:35:29.824Z,15.90
2017-09-28T05:38:00.597Z,16.00
2017-09-28T05:40:30.252Z,16.10
2017-09-28T05:42:58.702Z,16.10
2017-09-28T05:45:30.995Z,16.20
2017-09-28T05:48:02.053Z,16.20
2017-09-28T05:50:31.624Z,16.20
2017-09-28T05:53:02.024Z,16.00
2017-09-28T05:55:31.972Z,15.90
2017-09-28T05:58:02.603Z,15.90
2017-09-28T06:00:33.187Z,15.70
2017-09-28T06:03:03.329Z,15.70
2017-09-28T06:05:33.061Z,15.90
2017-09-28T06:08:03.691Z,16.20
2017-09-28T06:10:34.096Z,16.30
2017-09-28T06:13:03.883Z,16.20
2017-09-28T06:15:33.709Z,16.10
2017-09-28T06:18:04.428Z,16.20
2017-09-28T06:20:35.472Z,16.10
2017-09-28T06:23:05.126Z,16.20
2017-09-28T06:25:35.422Z,16.20
2017-09-28T06:28:07.015Z,16.20
2017-09-28T06:30:37.095Z,16.30
2017-09-28T06:33:06.169Z,16.30
2017-09-28T06:35:35.517Z,16.30
2017-09-28T06:38:06.243Z,16.40
2017-09-28T06:40:36.707Z,16.40
2017-09-28T06:43:05.158Z,16.40
2017-09-28T06:45:39.875Z,16.30
2017-09-28T06:48:09.025Z,16.30
2017-09-28T06:50:39.314Z,16.40
2017-09-28T06:53:09.016Z,16.30
2017-09-28T06:55:38.218Z,16.30
2017-09-28T06:58:07.281Z,16.30
2017-09-28T07:00:36.701Z,16.50
2017-09-28T07:03:09.117Z,16.60
2017-09-28T07:05:39.299Z,16.60
2017-09-28T07:08:08.571Z,16.60
2017-09-28T07:10:36.998Z,16.70
2017-09-28T07:13:07.071Z,16.70
2017-09-28T07:15:39.175Z,16.70
2017-09-28T07:18:08.755Z,16.80
2017-09-28T07:20:37.501Z,16.80
2017-09-28T07:23:06.800Z,16.90
2017-09-28T07:25:37.315Z,16.90
2017-09-28T07:28:06.595Z,16.80
2017-09-28T07:30:35.733Z,16.90
2017-09-28T07:33:09.830Z,16.90
2017-09-28T07:35:38.906Z,16.90
2017-09-28T07:38:08.248Z,16.80
2017-09-28T07:40:37.929Z,16.80
2017-09-28T07:43:08.312Z,17.10
2017-09-28T07:45:37.437Z,17.00
2017-09-28T07:48:08.467Z,17.10
2017-09-28T07:50:36.887Z,17.20
2017-09-28T07:53:06.843Z,17.10
2017-09-28T07:55:36.072Z,17.10
2017-09-28T07:58:04.463Z,17.10
2017-09-28T08:00:34.476Z,17.20
2017-09-28T08:03:03.024Z,17.20
2017-09-28T08:05:32.235Z,17.40
2017-09-28T08:08:00.893Z,17.50
2017-09-28T08:10:29.451Z,17.60
2017-09-28T08:12:59.022Z,17.60
2017-09-28T08:15:27.486Z,17.60
2017-09-28T08:17:56.838Z,17.70
2017-09-28T08:20:25.273Z,17.70
2017-09-28T08:22:55.247Z,17.70
2017-09-28T08:25:24.368Z,17.80
2017-09-28T08:27:53.630Z,17.90
2017-09-28T08:30:23.475Z,18.20
2017-09-28T08:32:57.221Z,18.20
2017-09-28T08:35:25.581Z,18.30
2017-09-28T08:37:54.153Z,18.10
2017-09-28T08:40:23.148Z,18.00
2017-09-28T08:42:52.989Z,18.40
2017-09-28T08:45:21.523Z,18.40
2017-09-28T08:47:50.604Z,18.50
2017-09-28T08:50:20.301Z,18.50
2017-09-28T08:52:49.454Z,18.60
2017-09-28T08:55:20.321Z,18.60
2017-09-28T08:57:49.847Z,19.00
2017-09-28T09:00:19.964Z,19.50
2017-09-28T09:02:49.380Z,19.40
2017-09-28T09:05:19.301Z,19.40
2017-09-28T09:07:47.990Z,19.20
2017-09-28T09:10:18.213Z,19.30
2017-09-28T09:12:47.120Z,19.30
2017-09-28T09:15:16.460Z,19.40
2017-09-28T09:17:46.671Z,19.50
2017-09-28T09:20:15.963Z,19.60
2017-09-28T09:22:44.763Z,19.90
2017-09-28T09:25:15.981Z,20.70
2017-09-28T09:27:44.850Z,21.70
2017-09-28T09:30:14.617Z,23.00
2017-09-28T09:32:44.423Z,23.00
2017-09-28T09:35:14.253Z,23.60
2017-09-28T09:37:43.069Z,23.90
2017-09-28T09:40:13.357Z,24.00
2017-09-28T09:42:42.099Z,23.90
2017-09-28T09:45:10.786Z,23.50
2017-09-28T09:47:39.166Z,23.10
2017-09-28T09:50:07.979Z,23.20
2017-09-28T09:52:36.510Z,22.60
2017-09-28T09:55:05.826Z,21.80
2017-09-28T09:57:34.059Z,21.80
2017-09-28T10:00:02.892Z,21.80
2017-09-28T10:02:33.037Z,21.50
2017-09-28T10:05:14.321Z,21.50
2017-09-28T10:07:48.497Z,21.60
2017-09-28T10:10:24.028Z,21.70
2017-09-28T10:13:04.249Z,21.60
2017-09-28T10:15:47.589Z,21.80
2017-09-28T10:18:16.152Z,22.00
2017-09-28T10:20:45.252Z,21.70
2017-09-28T10:23:15.676Z,21.40
2017-09-28T10:25:46.150Z,21.30
2017-09-28T10:28:16.410Z,21.50
2017-09-28T10:30:46.860Z,22.20
2017-09-28T10:33:17.376Z,22.20
2017-09-28T10:35:49.266Z,23.80
2017-09-28T10:38:21.839Z,25.10
2017-09-28T10:40:51.350Z,26.00
2017-09-28T10:43:20.368Z,25.90
2017-09-28T10:45:51.675Z,26.70
2017-09-28T10:48:22.362Z,26.60
2017-09-28T10:50:52.019Z,27.40
2017-09-28T10:53:24.064Z,26.10
2017-09-28T10:55:54.316Z,25.30
2017-09-28T10:58:24.319Z,25.30
2017-09-28T11:00:53.520Z,25.30
2017-09-28T11:03:22.890Z,25.80
2017-09-28T11:05:53.414Z,25.10
2017-09-28T11:08:21.953Z,25.10
2017-09-28T11:10:51.190Z,25.00
2017-09-28T11:13:20.260Z,24.30
2017-09-28T11:15:49.219Z,24.30
2017-09-28T11:18:23.692Z,24.30
2017-09-28T11:20:53.482Z,24.30
2017-09-28T11:23:22.032Z,23.70
2017-09-28T11:25:52.423Z,24.00
2017-09-28T11:28:22.776Z,23.30
2017-09-28T11:30:53.526Z,23.80
2017-09-28T11:33:22.464Z,23.70
2017-09-28T11:35:51.771Z,23.70
2017-09-28T11:38:20.406Z,23.40
2017-09-28T11:40:49.303Z,23.30
2017-09-28T11:43:18.518Z,23.30
2017-09-28T11:45:48.281Z,23.80
2017-09-28T11:48:19.490Z,23.70
2017-09-28T11:50:49.011Z,23.90
2017-09-28T11:53:18.327Z,23.70
2017-09-28T11:55:46.782Z,23.70
2017-09-28T11:58:15.791Z,23.40
2017-09-28T12:00:44.775Z,23.80
2017-09-28T12:03:25.408Z,23.80
2017-09-28T12:06:09.447Z,23.70
2017-09-28T12:08:46.776Z,24.50
2017-09-28T12:11:16.294Z,24.50
2017-09-28T12:13:46.780Z,24.60
2017-09-28T12:16:16.350Z,24.70
2017-09-28T12:18:50.759Z,24.20
2017-09-28T12:21:23.513Z,24.20
2017-09-28T12:23:51.958Z,24.50
2017-09-28T12:26:21.060Z,24.90
2017-09-28T12:28:49.397Z,25.10
2017-09-28T12:31:19.575Z,25.30
2017-09-28T12:33:59.924Z,25.20
2017-09-28T12:36:28.792Z,25.30
2017-09-28T12:38:59.153Z,25.40
2017-09-28T12:41:28.873Z,25.40
2017-09-28T12:44:05.835Z,25.30
2017-09-28T12:46:35.520Z,25.40
2017-09-28T12:49:12.251Z,25.50
2017-09-28T12:51:47.745Z,25.20
2017-09-28T12:54:19.879Z,25.30
2017-09-28T12:56:48.916Z,25.20
2017-09-28T12:59:18.574Z,25.50
2017-09-28T13:01:47.770Z,24.80
2017-09-28T13:04:17.943Z,24.80
2017-09-28T13:06:46.245Z,24.80
2017-09-28T13:09:17.175Z,24.90
2017-09-28T13:11:45.437Z,24.90
2017-09-28T13:14:24.464Z,24.70
2017-09-28T13:16:54.621Z,24.70
2017-09-28T13:19:23.296Z,24.60
2017-09-28T13:21:52.072Z,24.80
2017-09-28T13:24:21.031Z,24.70
2017-09-28T13:26:51.378Z,25.10
2017-09-28T13:29:20.381Z,25.00
2017-09-28T13:31:49.163Z,24.90
2017-09-28T13:34:20.667Z,24.90
2017-09-28T13:36:49.043Z,25.10
2017-09-28T13:39:19.298Z,24.90
2017-09-28T13:41:48.729Z,25.00
2017-09-28T13:44:17.900Z,25.00
2017-09-28T13:46:47.575Z,25.10
2017-09-28T13:49:16.398Z,22.80
2017-09-28T13:51:45.676Z,24.90
2017-09-28T13:54:15.088Z,24.80
2017-09-28T13:56:43.999Z,24.70
2017-09-28T13:59:13.370Z,25.10
2017-09-28T14:01:47.857Z,25.00
2017-09-28T14:04:16.260Z,25.00
2017-09-28T14:06:45.114Z,25.10
2017-09-28T14:09:13.785Z,25.10
2017-09-28T14:11:43.298Z,24.90
2017-09-28T14:14:13.501Z,24.90
2017-09-28T14:16:43.222Z,24.30
2017-09-28T14:19:12.548Z,24.30
2017-09-28T14:21:42.086Z,24.30
2017-09-28T14:24:12.130Z,24.40
2017-09-28T14:26:41.302Z,24.50
2017-09-28T14:29:10.829Z,24.50
2017-09-28T14:31:39.295Z,24.50
2017-09-28T14:34:08.761Z,24.40
2017-09-28T14:36:38.571Z,24.60
2017-09-28T14:39:09.670Z,24.60
2017-09-28T14:41:39.229Z,24.60
2017-09-28T14:44:08.913Z,24.70
2017-09-28T14:46:39.362Z,24.80
2017-09-28T14:49:08.458Z,24.80
2017-09-28T14:51:38.083Z,25.00
2017-09-28T14:54:07.447Z,25.10
2017-09-28T14:56:37.833Z,24.90
2017-09-28T14:59:06.765Z,24.90
2017-09-28T15:01:36.497Z,24.80
2017-09-28T15:04:05.808Z,24.70
2017-09-28T15:06:35.367Z,24.50
2017-09-28T15:09:04.745Z,24.40
2017-09-28T15:11:33.686Z,24.50
2017-09-28T15:14:03.287Z,24.60
2017-09-28T15:16:32.661Z,24.50
2017-09-28T15:19:02.293Z,24.50
2017-09-28T15:21:32.664Z,24.40
2017-09-28T15:24:05.683Z,24.40
2017-09-28T15:26:34.115Z,24.40
2017-09-28T15:29:02.811Z,24.40
2017-09-28T15:31:31.854Z,24.40
2017-09-28T15:34:08.831Z,24.40
2017-09-28T15:36:38.083Z,24.30
2017-09-28T15:39:05.706Z,24.40
2017-09-28T15:41:33.269Z,24.30
2017-09-28T15:44:00.886Z,24.10
2017-09-28T15:46:28.451Z,24.10
2017-09-28T15:48:56.029Z,24.00
2017-09-28T15:51:23.652Z,24.10
2017-09-28T15:53:54.233Z,24.10
2017-09-28T15:56:24.051Z,24.00
2017-09-28T15:58:53.884Z,24.00
2017-09-28T16:01:25.425Z,24.00
2017-09-28T16:04:03.198Z,24.00
2017-09-28T16:06:33.030Z,24.00
2017-09-28T16:09:02.680Z,23.90
2017-09-28T16:11:32.581Z,23.80
2017-09-28T16:14:02.391Z,23.90
2017-09-28T16:16:32.179Z,23.90
2017-09-28T16:19:03.860Z,23.80
2017-09-28T16:21:34.487Z,23.70
2017-09-28T16:24:04.994Z,23.80
2017-09-28T16:26:35.648Z,23.70
2017-09-28T16:29:06.059Z,23.70
2017-09-28T16:31:35.835Z,23.70
2017-09-28T16:34:05.510Z,23.70
2017-09-28T16:36:35.187Z,23.70
2017-09-28T16:39:06.690Z,23.50
2017-09-28T16:41:36.236Z,23.40
2017-09-28T16:44:06.754Z,23.50
2017-09-28T16:46:36.628Z,23.40
2017-09-28T16:49:06.561Z,23.30
2017-09-28T16:51:36.271Z,23.20
2017-09-28T16:54:07.522Z,22.70
2017-09-28T16:56:38.207Z,22.40
2017-09-28T16:59:08.431Z,22.00
2017-09-28T17:01:39.062Z,21.90
2017-09-28T17:04:10.345Z,22.00
2017-09-28T17:06:39.975Z,21.90
2017-09-28T17:09:09.876Z,22.10
2017-09-28T17:11:39.937Z,22.20
2017-09-28T17:14:10.304Z,22.50
2017-09-28T17:16:40.006Z,22.60
2017-09-28T17:19:09.906Z,22.70
2017-09-28T17:21:40.614Z,22.70
2017-09-28T17:24:10.538Z,22.70
2017-09-28T17:26:41.159Z,22.50
2017-09-28T17:29:11.023Z,22.10
2017-09-28T17:31:42.241Z,21.60
2017-09-28T17:34:14.746Z,21.60
2017-09-28T17:36:45.262Z,21.70
2017-09-28T17:39:16.007Z,21.80
2017-09-28T17:41:45.964Z,21.70
2017-09-28T17:44:15.621Z,21.90
2017-09-28T17:46:46.200Z,22.20
2017-09-28T17:49:16.023Z,22.20
2017-09-28T17:51:45.726Z,22.20
2017-09-28T17:54:15.572Z,22.10
2017-09-28T17:56:45.293Z,21.90
2017-09-28T17:59:22.820Z,21.90
2017-09-28T18:01:52.778Z,21.70
2017-09-28T18:04:22.417Z,21.60
2017-09-28T18:06:55.995Z,21.50
2017-09-28T18:09:25.532Z,21.40
2017-09-28T18:11:59.968Z,21.60
2017-09-28T18:14:29.827Z,21.60
2017-09-28T18:16:59.641Z,21.70
2017-09-28T18:19:30.408Z,21.80
2017-09-28T18:22:01.035Z,20.30
2017-09-28T18:24:31.930Z,20.20
2017-09-28T18:27:02.722Z,20.20
2017-09-28T18:29:34.280Z,20.60
2017-09-28T18:32:04.887Z,20.80
2017-09-28T18:34:34.559Z,20.80
2017-09-28T18:37:04.199Z,20.80
2017-09-28T18:39:34.071Z,21.00
2017-09-28T18:42:04.161Z,21.10
2017-09-28T18:44:34.528Z,21.20
2017-09-28T18:47:05.362Z,21.20
2017-09-28T18:49:44.713Z,21.00
2017-09-28T18:52:14.700Z,21.00
2017-09-28T18:54:44.352Z,21.00
2017-09-28T18:57:14.162Z,20.90
2017-09-28T18:59:43.785Z,21.00
2017-09-28T19:02:15.459Z,20.60
2017-09-28T19:04:47.037Z,20.20
2017-09-28T19:07:17.074Z,20.20
2017-09-28T19:09:46.745Z,20.30
2017-09-28T19:12:17.377Z,19.40
2017-09-28T19:14:49.165Z,19.30
2017-09-28T19:17:18.954Z,19.30
2017-09-28T19:19:48.467Z,19.00
2017-09-28T19:22:18.058Z,19.20
2017-09-28T19:24:49.762Z,19.40
2017-09-28T19:27:28.248Z,19.40
2017-09-28T19:29:58.997Z,19.50
2017-09-28T19:32:28.896Z,19.40
2017-09-28T19:34:58.745Z,19.40
2017-09-28T19:37:28.465Z,19.40
2017-09-28T19:39:58.337Z,19.60
2017-09-28T19:42:29.563Z,20.00
2017-09-28T19:45:00.259Z,20.40
2017-09-28T19:47:31.009Z,20.30
2017-09-28T19:50:02.621Z,20.50
2017-09-28T19:52:32.114Z,20.60
2017-09-28T19:55:01.876Z,20.60
2017-09-28T19:57:31.476Z,20.50
2017-09-28T20:00:01.050Z,20.30
2017-09-28T20:02:30.543Z,20.10
2017-09-28T20:05:01.057Z,20.10
2017-09-28T20:07:33.068Z,20.00
2017-09-28T20:10:02.777Z,20.00
2017-09-28T20:12:32.665Z,20.00
2017-09-28T20:15:03.235Z,20.20
2017-09-28T20:17:33.230Z,20.30
2017-09-28T20:20:03.593Z,20.20
2017-09-28T20:22:33.611Z,19.90
2017-09-28T20:25:02.921Z,20.00
2017-09-28T20:27:33.742Z,20.20
2017-09-28T20:30:03.506Z,20.20
2017-09-28T20:32:33.162Z,20.10
2017-09-28T20:35:02.725Z,19.90
2017-09-28T20:37:33.622Z,19.80
2017-09-28T20:40:07.447Z,19.90
2017-09-28T20:42:37.137Z,19.70
2017-09-28T20:45:06.970Z,19.80
2017-09-28T20:47:36.619Z,19.70
2017-09-28T20:50:08.203Z,19.80
2017-09-28T20:52:38.147Z,19.70
2017-09-28T20:55:08.477Z,20.00
2017-09-28T20:57:39.126Z,20.10
2017-09-28T21:00:11.300Z,20.10
2017-09-28T21:02:42.242Z,20.20
2017-09-28T21:05:12.091Z,20.10
2017-09-28T21:07:41.632Z,19.80
2017-09-28T21:10:11.351Z,19.60
2017-09-28T21:12:41.648Z,19.80
2017-09-28T21:15:11.467Z,19.80
2017-09-28T21:17:41.153Z,19.60
2017-09-28T21:20:11.128Z,19.70
2017-09-28T21:22:41.972Z,19.80
2017-09-28T21:25:12.784Z,19.80
2017-09-28T21:27:43.190Z,19.60
2017-09-28T21:30:12.804Z,19.60
2017-09-28T21:32:42.630Z,19.80
2017-09-28T21:35:14.204Z,19.70
2017-09-28T21:37:44.138Z,19.60
2017-09-28T21:40:13.992Z,19.80
2017-09-28T21:42:44.748Z,19.90
2017-09-28T21:45:15.705Z,20.00
2017-09-28T21:47:46.129Z,20.00
2017-09-28T21:50:16.724Z,19.70
2017-09-28T21:52:46.435Z,19.70
2017-09-28T21:55:17.216Z,19.50
2017-09-28T21:57:48.208Z,19.40
2017-09-28T22:00:19.005Z,19.40
2017-09-28T22:02:48.687Z,19.30
2017-09-28T22:05:19.095Z,19.40
2017-09-28T22:07:48.924Z,19.30
2017-09-28T22:10:19.452Z,19.50
2017-09-28T22:12:49.799Z,19.70
2017-09-28T22:15:20.868Z,19.60
2017-09-28T22:17:50.401Z,19.60
2017-09-28T22:20:20.231Z,19.60
2017-09-28T22:22:51.712Z,19.70
2017-09-28T22:25:22.248Z,19.60
2017-09-28T22:27:51.950Z,19.60
2017-09-28T22:30:22.654Z,19.40
2017-09-28T22:32:52.289Z,19.30
2017-09-28T22:35:22.087Z,19.50
2017-09-28T22:37:52.583Z,19.20
2017-09-28T22:40:22.386Z,19.20
2017-09-28T22:42:52.289Z,19.40
2017-09-28T22:45:21.907Z,19.40
2017-09-28T22:47:53.259Z,19.20
2017-09-28T22:50:22.934Z,19.20
2017-09-28T22:52:53.335Z,19.30
2017-09-28T22:55:23.123Z,19.40
2017-09-28T22:57:52.852Z,19.50
2017-09-28T23:00:22.178Z,19.40
2017-09-28T23:02:52.962Z,19.50
2017-09-28T23:05:22.729Z,19.60
2017-09-28T23:07:52.501Z,19.50
2017-09-28T23:10:22.130Z,19.60
2017-09-28T23:12:53.744Z,19.60
2017-09-28T23:15:23.552Z,19.60
2017-09-28T23:17:53.328Z,19.60
2017-09-28T23:20:24.627Z,19.50
2017-09-28T23:22:54.337Z,19.40
2017-09-28T23:25:24.219Z,19.40
2017-09-28T23:27:54.765Z,19.40
2017-09-28T23:30:24.370Z,19.20
2017-09-28T23:32:54.068Z,18.80
2017-09-28T23:35:23.407Z,18.70
2017-09-28T23:37:53.235Z,19.00
2017-09-28T23:40:22.694Z,19.20
2017-09-28T23:42:52.329Z,19.30
2017-09-28T23:45:22.111Z,19.20
2017-09-28T23:47:52.834Z,18.90
2017-09-28T23:50:22.384Z,19.00
2017-09-28T23:52:52.164Z,18.90
2017-09-28T23:55:21.706Z,18.80
2017-09-28T23:57:52.578Z,18.90
